sensor_id;sensor_type;location;lat;lon;timestamp;P1;durP1;ratioP1;P2;durP2;ratioP2
14373;SDS011;7270;49.004;12.066;2023-04-24T00:01:34;2.00;;;1.90;;
14373;SDS011;7270;49.004;12.066;2023-04-24T00:04:01;2.10;;;2.00;;
14373;SDS011;7270;49.004;12.066;2023-04-24T00:06:28;2.00;;;1.90;;
14373;SDS011;7270;49.004;12.066;2023-04-24T00:08:58;2.30;;;2.20;;
14373;SDS011;7270;49.004;12.066;2023-04-24T00:11:25;2.20;;;2.10;;
14373;SDS011;7270;49.004;12.066;2023-04-24T00:13:52;2.10;;;2.00;;
14373;SDS011;7270;49.004;12.066;2023-04-24T00:16:18;2.20;;;2.10;;
14373;SDS011;7270;49.004;12.066;2023-04-24T00:18:45;2.10;;;2.00;;
14373;SDS011;7270;49.004;12.066;2023-04-24T00:21:12;2.20;;;2.10;;
14373;SDS011;7270;49.004;12.066;2023-04-24T00:23:39;2.10;;;2.00;;
14373;SDS011;7270;49.004;12.066;2023-04-24T00:26:05;2.00;;;1.90;;
14373;SDS011;7270;49.004;12.066;2023-04-24T00:28:33;2.30;;;2.20;;
14373;SDS011;7270;49.004;12.066;2023-04-24T00:30:59;2.20;;;2.10;;
14373;SDS011;7270;49.004;12.066;2023-04-24T00:33:25;2.10;;;2.00;;
14373;SDS011;7270;49.004;12.066;2023-04-24T00:35:52;2.10;;;2.00;;
14373;SDS011;7270;49.004;12.066;2023-04-24T00:38:18;2.10;;;2.00;;
14373;SDS011;7270;49.004;12.066;2023-04-24T00:40:44;2.10;;;2.00;;
14373;SDS011;7270;49.004;12.066;2023-04-24T00:43:12;2.00;;;1.90;;
14373;SDS011;7270;49.004;12.066;2023-04-24T00:45:40;2.00;;;1.90;;
14373;SDS011;7270;49.004;12.066;2023-04-24T00:48:06;2.00;;;1.90;;
14373;SDS011;7270;49.004;12.066;2023-04-24T00:50:35;2.10;;;2.00;;
14373;SDS011;7270;49.004;12.066;2023-04-24T00:53:01;1.90;;;1.80;;
14373;SDS011;7270;49.004;12.066;2023-04-24T00:55:27;2.10;;;2.00;;
14373;SDS011;7270;49.004;12.066;2023-04-24T00:57:54;1.90;;;1.80;;
14373;SDS011;7270;49.004;12.066;2023-04-24T01:00:20;2.00;;;1.90;;
14373;SDS011;7270;49.004;12.066;2023-04-24T01:02:49;2.00;;;1.90;;
14373;SDS011;7270;49.004;12.066;2023-04-24T01:05:16;2.00;;;1.90;;
14373;SDS011;7270;49.004;12.066;2023-04-24T01:07:44;1.97;;;1.87;;
14373;SDS011;7270;49.004;12.066;2023-04-24T01:10:12;2.00;;;1.90;;
14373;SDS011;7270;49.004;12.066;2023-04-24T01:12:39;1.90;;;1.80;;
14373;SDS011;7270;49.004;12.066;2023-04-24T01:15:06;2.00;;;1.90;;
14373;SDS011;7270;49.004;12.066;2023-04-24T01:17:33;1.80;;;1.70;;
14373;SDS011;7270;49.004;12.066;2023-04-24T01:20:01;1.80;;;1.70;;
14373;SDS011;7270;49.004;12.066;2023-04-24T01:22:32;1.90;;;1.80;;
14373;SDS011;7270;49.004;12.066;2023-04-24T01:24:58;1.90;;;1.80;;
14373;SDS011;7270;49.004;12.066;2023-04-24T01:27:24;2.00;;;1.90;;
14373;SDS011;7270;49.004;12.066;2023-04-24T01:29:51;2.00;;;1.90;;
14373;SDS011;7270;49.004;12.066;2023-04-24T01:32:17;1.80;;;1.70;;
14373;SDS011;7270;49.004;12.066;2023-04-24T01:34:43;2.10;;;2.00;;
14373;SDS011;7270;49.004;12.066;2023-04-24T01:37:10;1.90;;;1.80;;
14373;SDS011;7270;49.004;12.066;2023-04-24T01:39:38;1.90;;;1.80;;
14373;SDS011;7270;49.004;12.066;2023-04-24T01:42:04;2.00;;;1.90;;
14373;SDS011;7270;49.004;12.066;2023-04-24T01:44:31;2.00;;;1.90;;
14373;SDS011;7270;49.004;12.066;2023-04-24T01:46:57;1.90;;;1.80;;
14373;SDS011;7270;49.004;12.066;2023-04-24T01:49:23;1.80;;;1.70;;
14373;SDS011;7270;49.004;12.066;2023-04-24T01:51:50;1.90;;;1.80;;
14373;SDS011;7270;49.004;12.066;2023-04-24T01:54:16;2.00;;;1.90;;
14373;SDS011;7270;49.004;12.066;2023-04-24T01:56:44;2.00;;;1.90;;
14373;SDS011;7270;49.004;12.066;2023-04-24T01:59:11;1.90;;;1.80;;
14373;SDS011;7270;49.004;12.066;2023-04-24T02:01:38;1.80;;;1.70;;
14373;SDS011;7270;49.004;12.066;2023-04-24T02:04:05;1.80;;;1.70;;
14373;SDS011;7270;49.004;12.066;2023-04-24T02:06:31;1.90;;;1.80;;
14373;SDS011;7270;49.004;12.066;2023-04-24T02:08:58;1.70;;;1.60;;
14373;SDS011;7270;49.004;12.066;2023-04-24T02:11:24;1.90;;;1.80;;
14373;SDS011;7270;49.004;12.066;2023-04-24T02:13:52;1.90;;;1.80;;
14373;SDS011;7270;49.004;12.066;2023-04-24T02:16:19;1.90;;;1.80;;
14373;SDS011;7270;49.004;12.066;2023-04-24T02:18:45;1.80;;;1.70;;
14373;SDS011;7270;49.004;12.066;2023-04-24T02:21:11;1.80;;;1.70;;
14373;SDS011;7270;49.004;12.066;2023-04-24T02:23:38;1.80;;;1.70;;
14373;SDS011;7270;49.004;12.066;2023-04-24T02:26:04;1.80;;;1.70;;
14373;SDS011;7270;49.004;12.066;2023-04-24T02:28:30;1.70;;;1.60;;
14373;SDS011;7270;49.004;12.066;2023-04-24T02:30:58;1.80;;;1.70;;
14373;SDS011;7270;49.004;12.066;2023-04-24T02:33:25;1.90;;;1.80;;
14373;SDS011;7270;49.004;12.066;2023-04-24T02:35:51;1.80;;;1.70;;
14373;SDS011;7270;49.004;12.066;2023-04-24T02:38:18;1.80;;;1.70;;
14373;SDS011;7270;49.004;12.066;2023-04-24T02:40:44;1.80;;;1.70;;
14373;SDS011;7270;49.004;12.066;2023-04-24T02:43:10;1.70;;;1.60;;
14373;SDS011;7270;49.004;12.066;2023-04-24T02:45:36;1.70;;;1.60;;
14373;SDS011;7270;49.004;12.066;2023-04-24T02:48:04;1.80;;;1.70;;
14373;SDS011;7270;49.004;12.066;2023-04-24T02:50:31;1.90;;;1.80;;
14373;SDS011;7270;49.004;12.066;2023-04-24T02:52:58;1.80;;;1.70;;
14373;SDS011;7270;49.004;12.066;2023-04-24T02:55:24;1.80;;;1.70;;
14373;SDS011;7270;49.004;12.066;2023-04-24T02:57:51;1.80;;;1.70;;
14373;SDS011;7270;49.004;12.066;2023-04-24T03:00:17;1.93;;;1.83;;
14373;SDS011;7270;49.004;12.066;2023-04-24T03:02:43;1.90;;;1.80;;
14373;SDS011;7270;49.004;12.066;2023-04-24T03:05:11;1.70;;;1.60;;
14373;SDS011;7270;49.004;12.066;2023-04-24T03:07:38;1.60;;;1.50;;
14373;SDS011;7270;49.004;12.066;2023-04-24T03:10:04;1.90;;;1.80;;
14373;SDS011;7270;49.004;12.066;2023-04-24T03:12:31;1.90;;;1.80;;
14373;SDS011;7270;49.004;12.066;2023-04-24T03:14:57;1.90;;;1.80;;
14373;SDS011;7270;49.004;12.066;2023-04-24T03:17:24;1.80;;;1.70;;
14373;SDS011;7270;49.004;12.066;2023-04-24T03:19:52;1.90;;;1.80;;
14373;SDS011;7270;49.004;12.066;2023-04-24T03:22:19;1.90;;;1.80;;
14373;SDS011;7270;49.004;12.066;2023-04-24T03:24:46;1.90;;;1.80;;
14373;SDS011;7270;49.004;12.066;2023-04-24T03:27:12;1.90;;;1.80;;
14373;SDS011;7270;49.004;12.066;2023-04-24T03:29:38;1.80;;;1.70;;
14373;SDS011;7270;49.004;12.066;2023-04-24T03:32:05;1.90;;;1.80;;
14373;SDS011;7270;49.004;12.066;2023-04-24T03:34:31;1.70;;;1.60;;
14373;SDS011;7270;49.004;12.066;2023-04-24T03:36:57;1.70;;;1.60;;
14373;SDS011;7270;49.004;12.066;2023-04-24T03:39:25;1.90;;;1.80;;
14373;SDS011;7270;49.004;12.066;2023-04-24T03:41:52;1.80;;;1.70;;
14373;SDS011;7270;49.004;12.066;2023-04-24T03:44:19;1.80;;;1.70;;
14373;SDS011;7270;49.004;12.066;2023-04-24T03:46:45;1.70;;;1.60;;
14373;SDS011;7270;49.004;12.066;2023-04-24T03:49:11;1.80;;;1.70;;
14373;SDS011;7270;49.004;12.066;2023-04-24T03:51:37;1.90;;;1.80;;
14373;SDS011;7270;49.004;12.066;2023-04-24T03:54:04;1.80;;;1.70;;
14373;SDS011;7270;49.004;12.066;2023-04-24T03:56:32;1.90;;;1.80;;
14373;SDS011;7270;49.004;12.066;2023-04-24T03:58:58;1.87;;;1.77;;
14373;SDS011;7270;49.004;12.066;2023-04-24T04:01:24;1.90;;;1.80;;
14373;SDS011;7270;49.004;12.066;2023-04-24T04:03:50;1.80;;;1.70;;
14373;SDS011;7270;49.004;12.066;2023-04-24T04:06:17;2.00;;;1.90;;
14373;SDS011;7270;49.004;12.066;2023-04-24T04:08:44;2.00;;;1.90;;
14373;SDS011;7270;49.004;12.066;2023-04-24T04:11:10;1.80;;;1.70;;
14373;SDS011;7270;49.004;12.066;2023-04-24T04:13:38;2.00;;;1.90;;
14373;SDS011;7270;49.004;12.066;2023-04-24T04:16:04;1.90;;;1.80;;
14373;SDS011;7270;49.004;12.066;2023-04-24T04:18:31;1.93;;;1.83;;
14373;SDS011;7270;49.004;12.066;2023-04-24T04:20:57;1.90;;;1.80;;
14373;SDS011;7270;49.004;12.066;2023-04-24T04:23:23;1.80;;;1.70;;
14373;SDS011;7270;49.004;12.066;2023-04-24T04:25:50;1.90;;;1.80;;
14373;SDS011;7270;49.004;12.066;2023-04-24T04:28:17;1.80;;;1.70;;
14373;SDS011;7270;49.004;12.066;2023-04-24T04:30:46;1.80;;;1.70;;
14373;SDS011;7270;49.004;12.066;2023-04-24T04:33:12;1.83;;;1.73;;
14373;SDS011;7270;49.004;12.066;2023-04-24T04:35:39;1.70;;;1.60;;
14373;SDS011;7270;49.004;12.066;2023-04-24T04:38:06;1.70;;;1.60;;
14373;SDS011;7270;49.004;12.066;2023-04-24T04:40:33;1.73;;;1.63;;
14373;SDS011;7270;49.004;12.066;2023-04-24T04:42:59;1.80;;;1.70;;
14373;SDS011;7270;49.004;12.066;2023-04-24T04:45:26;1.70;;;1.60;;
14373;SDS011;7270;49.004;12.066;2023-04-24T04:47:54;1.70;;;1.60;;
14373;SDS011;7270;49.004;12.066;2023-04-24T04:50:21;1.90;;;1.80;;
14373;SDS011;7270;49.004;12.066;2023-04-24T04:52:47;1.80;;;1.70;;
14373;SDS011;7270;49.004;12.066;2023-04-24T04:55:14;2.00;;;1.90;;
14373;SDS011;7270;49.004;12.066;2023-04-24T04:57:40;2.00;;;1.90;;
14373;SDS011;7270;49.004;12.066;2023-04-24T05:00:10;1.93;;;1.83;;
14373;SDS011;7270;49.004;12.066;2023-04-24T05:02:37;1.80;;;1.70;;
14373;SDS011;7270;49.004;12.066;2023-04-24T05:05:05;1.80;;;1.70;;
14373;SDS011;7270;49.004;12.066;2023-04-24T05:07:31;2.00;;;1.90;;
14373;SDS011;7270;49.004;12.066;2023-04-24T05:09:58;2.10;;;2.00;;
14373;SDS011;7270;49.004;12.066;2023-04-24T05:12:26;2.10;;;2.00;;
14373;SDS011;7270;49.004;12.066;2023-04-24T05:14:52;2.00;;;1.90;;
14373;SDS011;7270;49.004;12.066;2023-04-24T05:17:19;2.10;;;2.00;;
14373;SDS011;7270;49.004;12.066;2023-04-24T05:19:45;2.00;;;1.90;;
14373;SDS011;7270;49.004;12.066;2023-04-24T05:22:13;1.80;;;1.70;;
14373;SDS011;7270;49.004;12.066;2023-04-24T05:24:39;1.90;;;1.80;;
14373;SDS011;7270;49.004;12.066;2023-04-24T05:27:06;2.10;;;2.00;;
14373;SDS011;7270;49.004;12.066;2023-04-24T05:29:32;2.10;;;2.00;;
14373;SDS011;7270;49.004;12.066;2023-04-24T05:31:59;2.00;;;1.90;;
14373;SDS011;7270;49.004;12.066;2023-04-24T05:34:34;1.90;;;1.80;;
14373;SDS011;7270;49.004;12.066;2023-04-24T05:37:01;1.90;;;1.80;;
14373;SDS011;7270;49.004;12.066;2023-04-24T05:39:29;2.00;;;1.90;;
14373;SDS011;7270;49.004;12.066;2023-04-24T05:41:55;2.00;;;1.90;;
14373;SDS011;7270;49.004;12.066;2023-04-24T05:44:23;2.00;;;1.90;;
14373;SDS011;7270;49.004;12.066;2023-04-24T05:46:49;1.80;;;1.70;;
14373;SDS011;7270;49.004;12.066;2023-04-24T05:49:15;2.10;;;2.00;;
14373;SDS011;7270;49.004;12.066;2023-04-24T05:51:41;2.00;;;1.90;;
14373;SDS011;7270;49.004;12.066;2023-04-24T05:54:08;1.90;;;1.80;;
14373;SDS011;7270;49.004;12.066;2023-04-24T05:56:38;2.00;;;1.90;;
14373;SDS011;7270;49.004;12.066;2023-04-24T05:59:04;2.00;;;1.90;;
14373;SDS011;7270;49.004;12.066;2023-04-24T06:01:31;2.00;;;1.90;;
14373;SDS011;7270;49.004;12.066;2023-04-24T06:03:57;1.90;;;1.80;;
14373;SDS011;7270;49.004;12.066;2023-04-24T06:06:24;1.87;;;1.77;;
14373;SDS011;7270;49.004;12.066;2023-04-24T06:08:50;2.00;;;1.90;;
14373;SDS011;7270;49.004;12.066;2023-04-24T06:11:17;1.90;;;1.80;;
14373;SDS011;7270;49.004;12.066;2023-04-24T06:13:44;1.80;;;1.70;;
14373;SDS011;7270;49.004;12.066;2023-04-24T06:16:11;1.80;;;1.70;;
14373;SDS011;7270;49.004;12.066;2023-04-24T06:18:37;1.90;;;1.80;;
14373;SDS011;7270;49.004;12.066;2023-04-24T06:21:03;2.00;;;1.90;;
14373;SDS011;7270;49.004;12.066;2023-04-24T06:23:30;2.00;;;1.90;;
14373;SDS011;7270;49.004;12.066;2023-04-24T06:25:57;1.90;;;1.80;;
14373;SDS011;7270;49.004;12.066;2023-04-24T06:28:24;1.80;;;1.70;;
14373;SDS011;7270;49.004;12.066;2023-04-24T06:30:52;1.90;;;1.80;;
14373;SDS011;7270;49.004;12.066;2023-04-24T06:33:18;2.00;;;1.90;;
14373;SDS011;7270;49.004;12.066;2023-04-24T06:35:44;1.87;;;1.77;;
14373;SDS011;7270;49.004;12.066;2023-04-24T06:38:10;2.00;;;1.90;;
14373;SDS011;7270;49.004;12.066;2023-04-24T06:40:37;2.10;;;2.00;;
14373;SDS011;7270;49.004;12.066;2023-04-24T06:43:03;1.90;;;1.80;;
14373;SDS011;7270;49.004;12.066;2023-04-24T06:45:31;1.97;;;1.87;;
14373;SDS011;7270;49.004;12.066;2023-04-24T06:47:58;1.90;;;1.80;;
14373;SDS011;7270;49.004;12.066;2023-04-24T06:50:25;1.90;;;1.80;;
14373;SDS011;7270;49.004;12.066;2023-04-24T06:52:51;2.03;;;1.93;;
14373;SDS011;7270;49.004;12.066;2023-04-24T06:55:17;2.00;;;1.90;;
14373;SDS011;7270;49.004;12.066;2023-04-24T06:57:44;2.10;;;2.00;;
14373;SDS011;7270;49.004;12.066;2023-04-24T07:00:10;2.00;;;1.90;;
14373;SDS011;7270;49.004;12.066;2023-04-24T07:02:37;2.00;;;1.90;;
14373;SDS011;7270;49.004;12.066;2023-04-24T07:05:05;1.90;;;1.80;;
14373;SDS011;7270;49.004;12.066;2023-04-24T07:07:33;2.10;;;2.00;;
14373;SDS011;7270;49.004;12.066;2023-04-24T07:09:59;2.00;;;1.90;;
14373;SDS011;7270;49.004;12.066;2023-04-24T07:12:25;1.90;;;1.80;;
14373;SDS011;7270;49.004;12.066;2023-04-24T07:14:52;2.00;;;1.90;;
14373;SDS011;7270;49.004;12.066;2023-04-24T07:17:18;1.90;;;1.80;;
14373;SDS011;7270;49.004;12.066;2023-04-24T07:19:44;1.90;;;1.80;;
14373;SDS011;7270;49.004;12.066;2023-04-24T07:22:12;1.90;;;1.80;;
14373;SDS011;7270;49.004;12.066;2023-04-24T07:24:41;1.80;;;1.70;;
14373;SDS011;7270;49.004;12.066;2023-04-24T07:27:08;1.70;;;1.60;;
14373;SDS011;7270;49.004;12.066;2023-04-24T07:29:34;1.60;;;1.50;;
14373;SDS011;7270;49.004;12.066;2023-04-24T07:32:00;1.50;;;1.40;;
14373;SDS011;7270;49.004;12.066;2023-04-24T07:34:27;1.40;;;1.30;;
14373;SDS011;7270;49.004;12.066;2023-04-24T07:36:53;1.40;;;1.30;;
14373;SDS011;7270;49.004;12.066;2023-04-24T07:39:21;1.40;;;1.30;;
14373;SDS011;7270;49.004;12.066;2023-04-24T07:41:47;1.30;;;1.20;;
14373;SDS011;7270;49.004;12.066;2023-04-24T07:44:13;1.40;;;1.30;;
14373;SDS011;7270;49.004;12.066;2023-04-24T07:46:40;1.20;;;1.20;;
14373;SDS011;7270;49.004;12.066;2023-04-24T07:49:06;1.30;;;1.20;;
14373;SDS011;7270;49.004;12.066;2023-04-24T07:51:32;1.20;;;1.20;;
14373;SDS011;7270;49.004;12.066;2023-04-24T07:54:03;1.30;;;1.20;;
14373;SDS011;7270;49.004;12.066;2023-04-24T07:56:30;1.30;;;1.20;;
14373;SDS011;7270;49.004;12.066;2023-04-24T07:58:57;1.20;;;1.20;;
14373;SDS011;7270;49.004;12.066;2023-04-24T08:01:23;1.20;;;1.20;;
14373;SDS011;7270;49.004;12.066;2023-04-24T08:03:50;1.20;;;1.20;;
14373;SDS011;7270;49.004;12.066;2023-04-24T08:06:16;0.97;;;0.97;;
14373;SDS011;7270;49.004;12.066;2023-04-24T08:08:42;1.20;;;1.20;;
14373;SDS011;7270;49.004;12.066;2023-04-24T08:11:09;1.23;;;1.20;;
14373;SDS011;7270;49.004;12.066;2023-04-24T08:13:36;1.27;;;1.20;;
14373;SDS011;7270;49.004;12.066;2023-04-24T08:16:03;1.10;;;1.10;;
14373;SDS011;7270;49.004;12.066;2023-04-24T08:18:29;1.10;;;1.10;;
14373;SDS011;7270;49.004;12.066;2023-04-24T08:20:55;1.30;;;1.20;;
14373;SDS011;7270;49.004;12.066;2023-04-24T08:23:26;1.40;;;1.30;;
14373;SDS011;7270;49.004;12.066;2023-04-24T08:25:52;1.10;;;1.10;;
14373;SDS011;7270;49.004;12.066;2023-04-24T08:28:18;1.20;;;1.20;;
14373;SDS011;7270;49.004;12.066;2023-04-24T08:30:46;1.30;;;1.20;;
14373;SDS011;7270;49.004;12.066;2023-04-24T08:33:13;1.40;;;1.30;;
14373;SDS011;7270;49.004;12.066;2023-04-24T08:35:39;1.10;;;1.10;;
14373;SDS011;7270;49.004;12.066;2023-04-24T08:38:05;1.80;;;1.70;;
14373;SDS011;7270;49.004;12.066;2023-04-24T08:40:33;2.00;;;1.90;;
14373;SDS011;7270;49.004;12.066;2023-04-24T08:43:00;1.70;;;1.60;;
14373;SDS011;7270;49.004;12.066;2023-04-24T08:45:26;2.07;;;1.97;;
14373;SDS011;7270;49.004;12.066;2023-04-24T08:47:54;2.70;;;2.60;;
14373;SDS011;7270;49.004;12.066;2023-04-24T08:50:21;2.50;;;2.40;;
14373;SDS011;7270;49.004;12.066;2023-04-24T08:52:48;2.50;;;2.40;;
14373;SDS011;7270;49.004;12.066;2023-04-24T08:55:15;2.30;;;2.20;;
14373;SDS011;7270;49.004;12.066;2023-04-24T08:57:43;2.30;;;2.20;;
14373;SDS011;7270;49.004;12.066;2023-04-24T09:00:10;2.10;;;2.00;;
14373;SDS011;7270;49.004;12.066;2023-04-24T09:02:38;2.00;;;1.90;;
14373;SDS011;7270;49.004;12.066;2023-04-24T09:05:07;2.00;;;1.90;;
14373;SDS011;7270;49.004;12.066;2023-04-24T09:07:34;2.07;;;1.97;;
14373;SDS011;7270;49.004;12.066;2023-04-24T09:10:01;2.03;;;1.93;;
14373;SDS011;7270;49.004;12.066;2023-04-24T09:12:28;2.10;;;2.00;;
14373;SDS011;7270;49.004;12.066;2023-04-24T09:14:54;2.00;;;1.90;;
14373;SDS011;7270;49.004;12.066;2023-04-24T09:17:20;1.80;;;1.70;;
14373;SDS011;7270;49.004;12.066;2023-04-24T09:19:47;1.70;;;1.60;;
14373;SDS011;7270;49.004;12.066;2023-04-24T09:22:15;1.70;;;1.60;;
14373;SDS011;7270;49.004;12.066;2023-04-24T09:24:41;1.40;;;1.30;;
14373;SDS011;7270;49.004;12.066;2023-04-24T09:27:08;1.50;;;1.40;;
14373;SDS011;7270;49.004;12.066;2023-04-24T09:29:36;1.40;;;1.30;;
14373;SDS011;7270;49.004;12.066;2023-04-24T09:32:17;1.40;;;1.30;;
14373;SDS011;7270;49.004;12.066;2023-04-24T09:34:43;1.30;;;1.20;;
14373;SDS011;7270;49.004;12.066;2023-04-24T09:37:16;1.10;;;1.10;;
14373;SDS011;7270;49.004;12.066;2023-04-24T09:39:44;1.10;;;1.10;;
14373;SDS011;7270;49.004;12.066;2023-04-24T09:42:10;1.00;;;1.00;;
14373;SDS011;7270;49.004;12.066;2023-04-24T09:44:37;1.10;;;1.10;;
14373;SDS011;7270;49.004;12.066;2023-04-24T09:47:03;1.10;;;1.10;;
14373;SDS011;7270;49.004;12.066;2023-04-24T09:49:34;1.10;;;1.10;;
14373;SDS011;7270;49.004;12.066;2023-04-24T09:52:04;1.20;;;1.20;;
14373;SDS011;7270;49.004;12.066;2023-04-24T09:54:32;0.90;;;0.90;;
14373;SDS011;7270;49.004;12.066;2023-04-24T09:56:58;1.00;;;1.00;;
14373;SDS011;7270;49.004;12.066;2023-04-24T09:59:25;0.90;;;0.90;;
14373;SDS011;7270;49.004;12.066;2023-04-24T10:01:51;1.00;;;1.00;;
14373;SDS011;7270;49.004;12.066;2023-04-24T10:04:18;1.40;;;1.30;;
14373;SDS011;7270;49.004;12.066;2023-04-24T10:06:45;1.40;;;1.30;;
14373;SDS011;7270;49.004;12.066;2023-04-24T10:09:12;1.40;;;1.30;;
14373;SDS011;7270;49.004;12.066;2023-04-24T10:11:42;1.50;;;1.40;;
14373;SDS011;7270;49.004;12.066;2023-04-24T10:14:09;1.40;;;1.30;;
14373;SDS011;7270;49.004;12.066;2023-04-24T10:16:35;1.30;;;1.20;;
14373;SDS011;7270;49.004;12.066;2023-04-24T10:19:02;1.37;;;1.27;;
14373;SDS011;7270;49.004;12.066;2023-04-24T10:21:29;1.40;;;1.30;;
14373;SDS011;7270;49.004;12.066;2023-04-24T10:23:55;1.50;;;1.40;;
14373;SDS011;7270;49.004;12.066;2023-04-24T10:26:21;1.37;;;1.27;;
14373;SDS011;7270;49.004;12.066;2023-04-24T10:28:49;1.40;;;1.30;;
14373;SDS011;7270;49.004;12.066;2023-04-24T10:31:16;1.50;;;1.40;;
14373;SDS011;7270;49.004;12.066;2023-04-24T10:33:43;1.40;;;1.30;;
14373;SDS011;7270;49.004;12.066;2023-04-24T10:36:11;1.47;;;1.37;;
14373;SDS011;7270;49.004;12.066;2023-04-24T10:38:39;1.40;;;1.30;;
14373;SDS011;7270;49.004;12.066;2023-04-24T10:41:06;1.40;;;1.30;;
14373;SDS011;7270;49.004;12.066;2023-04-24T10:43:33;1.40;;;1.30;;
14373;SDS011;7270;49.004;12.066;2023-04-24T10:46:02;1.40;;;1.30;;
14373;SDS011;7270;49.004;12.066;2023-04-24T10:48:29;1.40;;;1.30;;
14373;SDS011;7270;49.004;12.066;2023-04-24T10:50:55;1.40;;;1.30;;
14373;SDS011;7270;49.004;12.066;2023-04-24T10:53:22;1.40;;;1.30;;
14373;SDS011;7270;49.004;12.066;2023-04-24T10:55:50;1.40;;;1.30;;
14373;SDS011;7270;49.004;12.066;2023-04-24T10:58:16;1.40;;;1.30;;
14373;SDS011;7270;49.004;12.066;2023-04-24T11:00:55;1.50;;;1.40;;
14373;SDS011;7270;49.004;12.066;2023-04-24T11:03:24;1.40;;;1.30;;
14373;SDS011;7270;49.004;12.066;2023-04-24T11:05:51;1.50;;;1.40;;
14373;SDS011;7270;49.004;12.066;2023-04-24T11:08:22;1.50;;;1.40;;
14373;SDS011;7270;49.004;12.066;2023-04-24T11:10:54;1.50;;;1.40;;
14373;SDS011;7270;49.004;12.066;2023-04-24T11:13:21;1.43;;;1.33;;
14373;SDS011;7270;49.004;12.066;2023-04-24T11:15:54;1.50;;;1.40;;
14373;SDS011;7270;49.004;12.066;2023-04-24T11:18:39;1.50;;;1.40;;
14373;SDS011;7270;49.004;12.066;2023-04-24T11:21:10;1.50;;;1.40;;
14373;SDS011;7270;49.004;12.066;2023-04-24T11:23:37;1.50;;;1.40;;
14373;SDS011;7270;49.004;12.066;2023-04-24T11:26:09;1.40;;;1.30;;
14373;SDS011;7270;49.004;12.066;2023-04-24T11:28:36;1.40;;;1.30;;
14373;SDS011;7270;49.004;12.066;2023-04-24T11:33:45;1.50;;;1.40;;
14373;SDS011;7270;49.004;12.066;2023-04-24T11:36:11;1.40;;;1.30;;
14373;SDS011;7270;49.004;12.066;2023-04-24T11:38:38;1.40;;;1.30;;
14373;SDS011;7270;49.004;12.066;2023-04-24T11:41:04;1.50;;;1.40;;
14373;SDS011;7270;49.004;12.066;2023-04-24T11:43:32;1.30;;;1.20;;
14373;SDS011;7270;49.004;12.066;2023-04-24T11:45:59;1.50;;;1.40;;
14373;SDS011;7270;49.004;12.066;2023-04-24T11:48:25;1.40;;;1.30;;
14373;SDS011;7270;49.004;12.066;2023-04-24T11:50:53;1.43;;;1.33;;
14373;SDS011;7270;49.004;12.066;2023-04-24T11:53:19;1.30;;;1.20;;
14373;SDS011;7270;49.004;12.066;2023-04-24T11:55:46;1.40;;;1.30;;
14373;SDS011;7270;49.004;12.066;2023-04-24T11:58:12;1.30;;;1.20;;
14373;SDS011;7270;49.004;12.066;2023-04-24T12:00:39;1.20;;;1.20;;
14373;SDS011;7270;49.004;12.066;2023-04-24T12:03:06;1.30;;;1.20;;
14373;SDS011;7270;49.004;12.066;2023-04-24T12:05:32;1.40;;;1.30;;
14373;SDS011;7270;49.004;12.066;2023-04-24T12:08:00;1.40;;;1.30;;
14373;SDS011;7270;49.004;12.066;2023-04-24T12:10:27;1.40;;;1.30;;
14373;SDS011;7270;49.004;12.066;2023-04-24T12:12:55;1.10;;;1.10;;
14373;SDS011;7270;49.004;12.066;2023-04-24T12:15:21;1.40;;;1.30;;
14373;SDS011;7270;49.004;12.066;2023-04-24T12:17:50;1.30;;;1.20;;
14373;SDS011;7270;49.004;12.066;2023-04-24T12:20:16;1.40;;;1.30;;
14373;SDS011;7270;49.004;12.066;2023-04-24T12:22:43;1.50;;;1.40;;
14373;SDS011;7270;49.004;12.066;2023-04-24T12:25:12;1.50;;;1.40;;
14373;SDS011;7270;49.004;12.066;2023-04-24T12:27:38;1.50;;;1.40;;
14373;SDS011;7270;49.004;12.066;2023-04-24T12:30:05;1.50;;;1.40;;
14373;SDS011;7270;49.004;12.066;2023-04-24T12:32:32;1.40;;;1.30;;
14373;SDS011;7270;49.004;12.066;2023-04-24T12:34:58;1.60;;;1.50;;
14373;SDS011;7270;49.004;12.066;2023-04-24T12:37:25;1.60;;;1.50;;
14373;SDS011;7270;49.004;12.066;2023-04-24T12:39:59;1.50;;;1.40;;
14373;SDS011;7270;49.004;12.066;2023-04-24T12:42:27;1.50;;;1.40;;
14373;SDS011;7270;49.004;12.066;2023-04-24T12:44:55;1.50;;;1.40;;
14373;SDS011;7270;49.004;12.066;2023-04-24T12:47:22;1.37;;;1.27;;
14373;SDS011;7270;49.004;12.066;2023-04-24T12:49:58;1.50;;;1.40;;
14373;SDS011;7270;49.004;12.066;2023-04-24T12:52:25;1.40;;;1.30;;
14373;SDS011;7270;49.004;12.066;2023-04-24T12:54:55;1.50;;;1.40;;
14373;SDS011;7270;49.004;12.066;2023-04-24T12:57:22;1.60;;;1.50;;
14373;SDS011;7270;49.004;12.066;2023-04-24T12:59:50;1.60;;;1.50;;
14373;SDS011;7270;49.004;12.066;2023-04-24T13:02:16;1.60;;;1.50;;
14373;SDS011;7270;49.004;12.066;2023-04-24T13:04:43;1.70;;;1.60;;
14373;SDS011;7270;49.004;12.066;2023-04-24T13:07:10;1.60;;;1.50;;
14373;SDS011;7270;49.004;12.066;2023-04-24T13:09:37;1.60;;;1.50;;
14373;SDS011;7270;49.004;12.066;2023-04-24T13:12:04;1.70;;;1.60;;
14373;SDS011;7270;49.004;12.066;2023-04-24T13:14:34;1.60;;;1.50;;
14373;SDS011;7270;49.004;12.066;2023-04-24T13:17:05;1.60;;;1.50;;
14373;SDS011;7270;49.004;12.066;2023-04-24T13:19:35;1.60;;;1.50;;
14373;SDS011;7270;49.004;12.066;2023-04-24T13:22:02;1.67;;;1.57;;
14373;SDS011;7270;49.004;12.066;2023-04-24T13:24:30;1.60;;;1.50;;
14373;SDS011;7270;49.004;12.066;2023-04-24T13:26:58;1.67;;;1.57;;
14373;SDS011;7270;49.004;12.066;2023-04-24T13:29:34;1.50;;;1.40;;
14373;SDS011;7270;49.004;12.066;2023-04-24T13:32:01;1.50;;;1.40;;
14373;SDS011;7270;49.004;12.066;2023-04-24T13:34:38;1.60;;;1.50;;
14373;SDS011;7270;49.004;12.066;2023-04-24T13:37:04;1.60;;;1.50;;
14373;SDS011;7270;49.004;12.066;2023-04-24T13:39:33;1.50;;;1.40;;
14373;SDS011;7270;49.004;12.066;2023-04-24T13:42:00;1.50;;;1.40;;
14373;SDS011;7270;49.004;12.066;2023-04-24T13:44:26;1.50;;;1.40;;
14373;SDS011;7270;49.004;12.066;2023-04-24T13:46:53;1.53;;;1.43;;
14373;SDS011;7270;49.004;12.066;2023-04-24T13:49:22;1.60;;;1.50;;
14373;SDS011;7270;49.004;12.066;2023-04-24T13:51:51;1.60;;;1.50;;
14373;SDS011;7270;49.004;12.066;2023-04-24T13:54:17;1.70;;;1.60;;
14373;SDS011;7270;49.004;12.066;2023-04-24T13:56:44;1.60;;;1.50;;
14373;SDS011;7270;49.004;12.066;2023-04-24T13:59:11;1.57;;;1.47;;
14373;SDS011;7270;49.004;12.066;2023-04-24T14:01:37;1.60;;;1.50;;
14373;SDS011;7270;49.004;12.066;2023-04-24T14:04:03;1.50;;;1.40;;
14373;SDS011;7270;49.004;12.066;2023-04-24T14:06:30;1.50;;;1.40;;
14373;SDS011;7270;49.004;12.066;2023-04-24T14:08:58;1.60;;;1.50;;
14373;SDS011;7270;49.004;12.066;2023-04-24T14:11:25;1.60;;;1.50;;
14373;SDS011;7270;49.004;12.066;2023-04-24T14:13:52;1.57;;;1.47;;
14373;SDS011;7270;49.004;12.066;2023-04-24T14:16:19;1.50;;;1.40;;
14373;SDS011;7270;49.004;12.066;2023-04-24T14:18:45;1.60;;;1.50;;
14373;SDS011;7270;49.004;12.066;2023-04-24T14:21:12;1.57;;;1.47;;
14373;SDS011;7270;49.004;12.066;2023-04-24T14:23:40;1.60;;;1.50;;
14373;SDS011;7270;49.004;12.066;2023-04-24T14:26:08;1.60;;;1.50;;
14373;SDS011;7270;49.004;12.066;2023-04-24T14:28:34;1.70;;;1.60;;
14373;SDS011;7270;49.004;12.066;2023-04-24T14:31:01;1.60;;;1.50;;
14373;SDS011;7270;49.004;12.066;2023-04-24T14:33:28;1.50;;;1.40;;
14373;SDS011;7270;49.004;12.066;2023-04-24T14:35:54;1.60;;;1.50;;
14373;SDS011;7270;49.004;12.066;2023-04-24T14:38:21;1.57;;;1.47;;
14373;SDS011;7270;49.004;12.066;2023-04-24T14:40:47;1.57;;;1.47;;
14373;SDS011;7270;49.004;12.066;2023-04-24T14:43:15;1.60;;;1.50;;
14373;SDS011;7270;49.004;12.066;2023-04-24T14:45:41;1.57;;;1.47;;
14373;SDS011;7270;49.004;12.066;2023-04-24T14:48:08;1.70;;;1.60;;
14373;SDS011;7270;49.004;12.066;2023-04-24T14:50:34;1.60;;;1.50;;